Terminal Aerodrome Forecast
Issued by NWS

Home | Current Version | Previous Version | Text Only | Print | Product List | Glossary Off
Versions: 1 2 3 4 5 6 7 8 9 10 11 12 13 14 15 16 17 18 19 20 21 22 23 24 25 26 27 28 29 30 31 32

000
FTUS41 KCLE 201700
TAFFDY
TAF
KFDY 201736Z 2018/2118 25007KT P6SM SCT020 BKN035
      TEMPO 2018/2022 BKN020
     FM210200 27005KT P6SM SCT120 BKN250
     FM210600 22003KT 6SM BR BKN120
      TEMPO 2106/2109 4SM BR
     FM210900 22003KT 5SM BR VCTS BKN035CB
      TEMPO 2109/2113 3SM -SHRA BR BKN035
     FM211300 22007KT 6SM HZ VCTS BKN025CB=

USA.gov is the U.S. government's official web portal to all federal, state and local government web resources and services.